logo
Search for airport 
image banner adimage banner adimage banner ad
image banner ad

YSBO - Stanbroke

Located in Dajarra, Australia

ICAO - YSBO, IATA -

Data provided by Airmate  

General information

Coordinates: S21°34'45" E139°42'18"
Elevation is 1060 feet MSL.
Magnetic variation is 6° East
View others Airports in Queensland

Operational data

Special qualification required
Current time UTC:
Current local time:
Weather at : - ( 0 km )
METAR: TJBQ 220250Z 00000KT 10SM SCT021 BKN031 BKN038 26/24 A3004
View NOTAMs / SUP AIP / TFR affecting this airport [VIEW]
Communications frequencies: [VIEW]

Runways:

RWY identifierQFULength (ft)Width (ft)SurfaceLDA (ft)
1832800X
3632800X
34350°395189DIRT
16170°395189DIRT

Airport contact information

Address: Dajarra Australia

Satellite view of YSBO